Time;durP1;ratioP1;P1;durP2;ratioP2;P2;SDS_P1;SDS_P2;PMS_P1;PMS_P2;Temp;Humidity;BMP_temperature;BMP_pressure;BME280_temperature;BME280_humidity;BME280_pressure;Samples;Min_cycle;Max_cycle;Signal;HPM_P1;HPM_P2
2020/12/23 00:01:10;;;;;;;1.80;1.33;;;14.00;90.60;;;;;;5026491;28;20462;-72
2020/12/23 00:03:36;;;;;;;1.60;1.20;;;14.00;90.60;;;;;;5037117;28;20725;-72
2020/12/23 00:06:01;;;;;;;1.70;1.20;;;14.00;90.60;;;;;;5047988;28;20251;-73
2020/12/23 00:08:27;;;;;;;1.67;1.23;;;14.00;90.40;;;;;;5017852;28;20640;-72
2020/12/23 00:10:53;;;;;;;3.40;1.37;;;14.00;90.40;;;;;;5029918;28;20189;-72
2020/12/23 00:13:19;;;;;;;2.60;1.30;;;14.00;90.50;;;;;;5016333;28;20189;-72
2020/12/23 00:15:45;;;;;;;2.17;1.60;;;14.00;90.50;;;;;;5026474;28;20424;-73
2020/12/23 00:18:11;;;;;;;3.10;1.73;;;14.00;90.40;;;;;;5030242;28;20935;-71
2020/12/23 00:20:37;;;;;;;1.93;1.30;;;14.00;90.40;;;;;;5027886;28;20430;-72
2020/12/23 00:23:02;;;;;;;2.90;1.23;;;14.00;90.40;;;;;;5027577;28;20689;-72
2020/12/23 00:25:28;;;;;;;4.03;1.50;;;14.10;90.20;;;;;;5026569;28;20221;-72
2020/12/23 00:27:54;;;;;;;1.77;1.40;;;14.10;90.10;;;;;;5037525;28;20197;-73
2020/12/23 00:30:20;;;;;;;1.43;1.30;;;14.10;90.00;;;;;;5029265;28;20189;-73
2020/12/23 00:32:46;;;;;;;1.80;1.10;;;14.10;90.10;;;;;;5026633;28;20994;-72
2020/12/23 00:35:12;;;;;;;1.83;1.30;;;14.10;90.00;;;;;;5018983;28;20860;-72
2020/12/23 00:37:38;;;;;;;2.63;1.10;;;14.20;89.90;;;;;;5027240;28;20427;-71
2020/12/23 00:40:05;;;;;;;1.10;1.10;;;14.20;89.70;;;;;;5027044;28;20800;-72
2020/12/23 00:42:31;;;;;;;2.17;1.43;;;14.20;89.60;;;;;;5013907;28;20576;-72
2020/12/23 00:44:58;;;;;;;1.40;1.07;;;14.30;89.50;;;;;;5025575;28;20479;-72
2020/12/23 00:47:24;;;;;;;2.80;1.40;;;14.30;89.30;;;;;;5027095;28;20181;-72
2020/12/23 00:49:50;;;;;;;2.53;1.40;;;14.30;89.20;;;;;;5027259;28;20434;-73
2020/12/23 00:52:16;;;;;;;1.97;1.30;;;14.30;89.00;;;;;;5026490;28;20836;-72
2020/12/23 00:54:41;;;;;;;1.53;1.27;;;14.30;89.00;;;;;;5024905;28;20204;-72
2020/12/23 00:57:07;;;;;;;2.70;1.40;;;14.40;89.00;;;;;;5026809;28;20193;-72
2020/12/23 00:59:33;;;;;;;1.40;1.10;;;14.40;88.70;;;;;;5027177;28;20193;-71
2020/12/23 01:01:59;;;;;;;1.80;1.27;;;14.40;88.70;;;;;;5023923;28;20224;-72
2020/12/23 01:04:25;;;;;;;1.63;1.30;;;14.40;89.00;;;;;;5024078;28;20213;-71
2020/12/23 01:06:51;;;;;;;2.20;1.10;;;14.40;88.60;;;;;;5031181;28;20439;-72
2020/12/23 01:09:17;;;;;;;1.10;1.10;;;14.40;88.60;;;;;;5031017;28;20436;-71
2020/12/23 01:11:43;;;;;;;1.27;1.10;;;14.40;88.40;;;;;;5030438;28;20197;-74
2020/12/23 01:14:08;;;;;;;1.37;1.10;;;14.40;88.40;;;;;;5028243;28;20190;-75
2020/12/23 01:16:34;;;;;;;1.43;0.97;;;14.50;88.10;;;;;;5027595;28;20680;-74
2020/12/23 01:19:00;;;;;;;2.80;1.13;;;14.50;88.00;;;;;;5028240;28;20217;-74
2020/12/23 01:21:26;;;;;;;1.80;1.30;;;14.50;88.00;;;;;;5029829;28;20222;-72
2020/12/23 01:23:52;;;;;;;2.13;1.30;;;14.50;87.80;;;;;;5013052;28;20220;-74
2020/12/23 01:26:17;;;;;;;2.13;1.20;;;14.50;87.80;;;;;;5024284;28;20966;-71
2020/12/23 01:28:46;;;;;;;2.07;1.23;;;14.50;87.80;;;;;;5033394;28;20431;-73
2020/12/23 01:31:12;;;;;;;1.77;1.20;;;14.50;87.70;;;;;;5040833;28;20201;-73
2020/12/23 01:33:38;;;;;;;0.90;0.87;;;14.50;87.60;;;;;;5042654;28;20915;-72
2020/12/23 01:36:04;;;;;;;2.03;1.17;;;14.50;87.60;;;;;;5037074;28;20205;-74
2020/12/23 01:38:29;;;;;;;1.57;1.23;;;14.50;87.60;;;;;;5030811;28;20444;-73
2020/12/23 01:40:59;;;;;;;1.53;0.93;;;14.50;87.80;;;;;;5038417;28;20429;-72
2020/12/23 01:43:25;;;;;;;1.03;1.00;;;14.50;87.60;;;;;;5027671;28;20193;-73
2020/12/23 01:45:51;;;;;;;2.27;1.00;;;14.50;87.40;;;;;;5020150;28;20926;-76
2020/12/23 01:48:20;;;;;;;1.57;0.93;;;14.60;87.40;;;;;;5034100;28;20451;-75
2020/12/23 01:50:49;;;;;;;5.83;1.30;;;14.60;86.80;;;;;;5039133;28;20468;-74
2020/12/23 01:53:16;;;;;;;1.67;1.30;;;14.60;87.00;;;;;;5035700;28;20953;-75
2020/12/23 01:55:46;;;;;;;1.30;0.90;;;14.70;86.50;;;;;;5032072;28;20522;-72
2020/12/23 01:58:13;;;;;;;1.90;1.30;;;14.70;86.60;;;;;;5021035;28;20464;-73
2020/12/23 02:00:39;;;;;;;1.60;1.20;;;14.70;86.60;;;;;;5035038;28;20447;-73
2020/12/23 02:03:08;;;;;;;1.37;0.97;;;14.70;86.30;;;;;;5041610;28;20440;-73
2020/12/23 02:05:35;;;;;;;1.77;1.07;;;14.80;86.00;;;;;;5028695;28;20459;-73
2020/12/23 02:08:01;;;;;;;10.23;1.10;;;14.80;85.90;;;;;;5038409;28;20432;-75
2020/12/23 02:10:27;;;;;;;1.10;0.80;;;14.90;85.60;;;;;;5025854;28;20419;-73
2020/12/23 02:12:54;;;;;;;1.30;0.97;;;14.90;85.30;;;;;;5034929;28;20205;-74
2020/12/23 02:15:20;;;;;;;4.70;0.90;;;15.00;84.90;;;;;;5032472;28;20415;-72
2020/12/23 02:17:47;;;;;;;1.00;0.70;;;15.00;84.90;;;;;;5031180;28;20507;-75
2020/12/23 02:20:14;;;;;;;2.00;0.90;;;15.00;84.40;;;;;;5031386;28;20915;-74
2020/12/23 02:22:40;;;;;;;1.00;0.87;;;15.10;84.60;;;;;;5022655;28;20861;-74
2020/12/23 02:25:07;;;;;;;1.50;0.83;;;15.10;84.40;;;;;;5011144;28;20546;-72
2020/12/23 02:27:33;;;;;;;1.20;1.10;;;15.10;84.40;;;;;;5021565;28;20424;-74
2020/12/23 02:30:00;;;;;;;1.17;0.90;;;15.10;84.40;;;;;;5031453;28;20535;-73
2020/12/23 02:32:26;;;;;;;1.67;1.00;;;15.10;84.10;;;;;;5032265;28;21400;-75
2020/12/23 02:34:52;;;;;;;1.73;0.90;;;15.10;84.00;;;;;;5030667;28;20453;-73
2020/12/23 02:37:19;;;;;;;1.00;0.90;;;15.20;84.00;;;;;;5031918;28;20912;-75
2020/12/23 02:39:51;;;;;;;2.43;0.80;;;15.10;84.00;;;;;;5031814;28;20424;-75
2020/12/23 02:42:18;;;;;;;1.20;1.00;;;15.20;83.80;;;;;;5030942;28;20525;-76
2020/12/23 02:44:45;;;;;;;1.17;0.83;;;15.20;84.00;;;;;;5030699;28;20471;-76
2020/12/23 02:47:13;;;;;;;0.97;0.87;;;15.20;83.70;;;;;;5031728;28;20448;-74
2020/12/23 02:49:39;;;;;;;1.30;0.97;;;15.20;83.70;;;;;;5031462;28;20418;-74
2020/12/23 02:52:06;;;;;;;0.90;0.73;;;15.10;84.10;;;;;;5033373;28;20455;-75
2020/12/23 02:54:32;;;;;;;1.10;0.70;;;15.10;84.00;;;;;;5031317;28;20420;-75
2020/12/23 02:56:58;;;;;;;1.20;0.90;;;15.10;84.00;;;;;;5031474;28;20474;-72
2020/12/23 02:59:24;;;;;;;1.20;1.00;;;15.10;84.10;;;;;;5031657;28;20419;-72
2020/12/23 03:01:50;;;;;;;1.47;1.00;;;15.10;83.80;;;;;;5030856;28;20489;-72
2020/12/23 03:04:15;;;;;;;0.90;0.80;;;15.20;83.70;;;;;;5030018;28;20288;-74
2020/12/23 03:06:41;;;;;;;0.80;0.70;;;15.10;83.70;;;;;;5031160;28;20182;-73
2020/12/23 03:09:09;;;;;;;1.03;0.87;;;15.10;83.60;;;;;;5031214;28;20280;-73
2020/12/23 03:11:35;;;;;;;1.37;0.90;;;15.10;83.60;;;;;;5023868;28;20521;-75
2020/12/23 03:14:01;;;;;;;2.00;1.37;;;15.20;83.40;;;;;;5029823;28;20887;-73
2020/12/23 03:16:27;;;;;;;1.03;0.80;;;15.20;83.40;;;;;;5030617;28;20266;-75
2020/12/23 03:18:53;;;;;;;0.93;0.80;;;15.20;83.10;;;;;;5029439;28;20501;-76
2020/12/23 03:21:19;;;;;;;0.90;0.87;;;15.20;83.00;;;;;;5030280;28;20213;-76
2020/12/23 03:23:45;;;;;;;1.30;0.87;;;15.20;82.80;;;;;;5030851;28;20474;-74
2020/12/23 03:26:11;;;;;;;1.83;1.00;;;15.20;82.80;;;;;;5034627;28;20190;-73
2020/12/23 03:28:36;;;;;;;1.30;0.80;;;15.20;82.70;;;;;;5019564;28;20570;-75
2020/12/23 03:31:03;;;;;;;1.50;1.00;;;15.20;82.50;;;;;;5022801;28;20212;-74
2020/12/23 03:33:29;;;;;;;1.97;1.10;;;15.20;82.40;;;;;;5030777;28;20999;-74
2020/12/23 03:35:55;;;;;;;1.20;1.00;;;15.20;82.40;;;;;;5011320;28;20428;-74
2020/12/23 03:38:21;;;;;;;1.27;0.93;;;15.20;82.50;;;;;;5023186;28;20433;-74
2020/12/23 03:40:47;;;;;;;2.17;1.00;;;15.20;82.40;;;;;;5023190;28;20425;-72
2020/12/23 03:43:13;;;;;;;1.67;1.00;;;15.20;82.40;;;;;;5012082;28;20680;-74
2020/12/23 03:45:39;;;;;;;1.40;0.93;;;15.20;82.50;;;;;;5021289;28;20218;-73
2020/12/23 03:48:05;;;;;;;1.37;1.10;;;15.20;82.50;;;;;;5025830;28;20431;-74
2020/12/23 03:50:31;;;;;;;1.50;0.93;;;15.20;82.50;;;;;;5020699;28;20424;-73
2020/12/23 03:52:57;;;;;;;1.30;0.80;;;15.20;82.20;;;;;;5022074;28;20478;-75
2020/12/23 03:55:23;;;;;;;1.17;0.77;;;15.20;82.20;;;;;;5013165;28;20429;-76
2020/12/23 03:57:49;;;;;;;1.47;0.90;;;15.20;82.20;;;;;;5029920;28;20424;-74
2020/12/23 04:00:15;;;;;;;0.80;0.80;;;15.20;82.10;;;;;;5012987;28;20213;-75
2020/12/23 04:02:41;;;;;;;1.83;1.30;;;15.10;82.40;;;;;;5023304;28;20217;-76
2020/12/23 04:05:08;;;;;;;2.30;1.00;;;15.10;82.50;;;;;;5009276;28;20476;-74
2020/12/23 04:07:34;;;;;;;1.00;0.90;;;15.10;82.50;;;;;;5010088;28;20184;-74
2020/12/23 04:10:00;;;;;;;1.93;1.63;;;15.10;82.40;;;;;;5019568;28;20420;-74
2020/12/23 04:12:26;;;;;;;1.97;0.80;;;15.10;82.70;;;;;;5025059;28;20444;-74
2020/12/23 04:14:53;;;;;;;1.07;1.00;;;15.20;82.40;;;;;;5023567;28;20431;-73
2020/12/23 04:17:19;;;;;;;2.73;0.93;;;15.10;83.40;;;;;;5010309;28;20519;-74
2020/12/23 04:19:44;;;;;;;1.00;0.90;;;15.00;84.10;;;;;;5022373;28;20482;-76
2020/12/23 04:22:10;;;;;;;1.60;0.93;;;14.90;84.30;;;;;;5010313;28;20449;-74
2020/12/23 04:24:37;;;;;;;1.33;0.97;;;14.90;84.40;;;;;;5008978;28;20205;-73
2020/12/23 04:27:03;;;;;;;1.53;0.90;;;14.90;84.30;;;;;;5010086;28;20276;-75
2020/12/23 04:29:29;;;;;;;1.93;0.90;;;14.90;83.80;;;;;;5027372;28;20440;-72
2020/12/23 04:31:54;;;;;;;0.90;0.80;;;14.90;83.60;;;;;;5015971;28;20453;-73
2020/12/23 04:34:20;;;;;;;1.40;1.00;;;15.00;83.40;;;;;;5008859;28;20193;-74
2020/12/23 04:36:46;;;;;;;2.50;1.00;;;15.00;83.70;;;;;;5020527;28;20730;-74
2020/12/23 04:39:11;;;;;;;1.20;0.80;;;15.00;83.40;;;;;;5013228;28;20190;-73
2020/12/23 04:41:37;;;;;;;1.83;1.10;;;15.00;84.00;;;;;;5017549;28;20264;-75
2020/12/23 04:44:05;;;;;;;1.50;0.90;;;14.90;85.90;;;;;;5014179;28;20266;-71
2020/12/23 04:46:36;;;;;;;1.33;0.90;;;14.60;87.60;;;;;;5029698;28;20178;-75
2020/12/23 04:49:03;;;;;;;1.67;0.90;;;14.50;88.40;;;;;;5016682;28;20421;-72
2020/12/23 04:51:34;;;;;;;1.50;1.17;;;14.40;89.20;;;;;;5009736;28;20563;-74
2020/12/23 04:54:02;;;;;;;1.20;0.90;;;14.30;89.60;;;;;;5016742;28;20427;-73
2020/12/23 04:56:29;;;;;;;3.90;1.43;;;14.20;90.00;;;;;;5028439;28;20491;-74
2020/12/23 04:58:56;;;;;;;0.90;0.90;;;14.20;89.90;;;;;;5029052;28;20419;-74
2020/12/23 05:01:23;;;;;;;1.10;1.10;;;14.20;89.70;;;;;;5027635;28;20914;-71
2020/12/23 05:03:50;;;;;;;1.20;0.90;;;14.20;89.60;;;;;;5009115;28;20457;-72
2020/12/23 05:06:16;;;;;;;1.60;0.93;;;14.30;89.30;;;;;;5009357;28;20948;-73
2020/12/23 05:08:42;;;;;;;1.10;0.90;;;14.30;89.00;;;;;;5007833;28;20444;-71
2020/12/23 05:11:09;;;;;;;1.60;0.93;;;14.30;88.30;;;;;;5010394;28;20523;-71
2020/12/23 05:13:36;;;;;;;2.80;1.03;;;14.40;88.30;;;;;;5029062;28;20558;-74
2020/12/23 05:16:05;;;;;;;1.10;0.90;;;14.40;87.80;;;;;;5027114;28;20452;-74
2020/12/23 05:18:35;;;;;;;0.90;0.87;;;14.40;87.60;;;;;;5029123;28;20500;-73
2020/12/23 05:21:02;;;;;;;1.47;0.90;;;14.40;87.70;;;;;;5027277;28;20466;-74
2020/12/23 05:23:31;;;;;;;1.53;1.27;;;14.40;87.60;;;;;;5028769;28;20764;-74
2020/12/23 05:26:07;;;;;;;1.10;0.80;;;14.40;87.40;;;;;;5028464;28;20503;-76
2020/12/23 05:28:34;;;;;;;1.10;0.87;;;14.40;87.10;;;;;;5029220;28;20420;-75
2020/12/23 05:31:04;;;;;;;6.63;0.93;;;14.40;87.10;;;;;;5028610;28;20943;-73
2020/12/23 05:33:34;;;;;;;1.93;1.23;;;14.50;87.10;;;;;;5027576;28;20488;-74
2020/12/23 05:36:04;;;;;;;2.00;1.13;;;14.40;87.40;;;;;;5028409;28;20930;-73
2020/12/23 05:38:31;;;;;;;1.10;1.00;;;14.40;87.10;;;;;;5029015;28;20424;-74
2020/12/23 05:41:02;;;;;;;1.20;1.00;;;14.40;87.00;;;;;;5019848;28;20738;-74
2020/12/23 05:43:29;;;;;;;1.07;0.77;;;14.50;86.90;;;;;;5021944;28;20535;-75
2020/12/23 05:45:59;;;;;;;1.13;0.87;;;14.50;86.90;;;;;;5028091;28;20423;-73
2020/12/23 05:48:27;;;;;;;2.57;1.10;;;14.40;87.00;;;;;;5028635;28;21026;-76
2020/12/23 05:50:53;;;;;;;1.37;0.97;;;14.40;87.00;;;;;;5028685;28;20543;-74
2020/12/23 05:53:19;;;;;;;1.37;1.03;;;14.40;87.00;;;;;;5032109;28;20495;-75
2020/12/23 05:55:49;;;;;;;1.60;1.07;;;14.40;87.00;;;;;;5031595;28;20428;-73
2020/12/23 05:58:26;;;;;;;1.30;1.10;;;14.40;86.80;;;;;;5029079;28;20190;-72
2020/12/23 06:00:53;;;;;;;3.00;1.10;;;14.40;86.80;;;;;;5010921;28;20440;-74
2020/12/23 06:03:24;;;;;;;1.20;1.03;;;14.40;86.30;;;;;;5025655;28;20421;-75
2020/12/23 06:06:03;;;;;;;1.13;0.90;;;14.40;86.00;;;;;;5011818;28;20464;-72
2020/12/23 06:08:34;;;;;;;1.37;1.00;;;14.40;86.00;;;;;;5019926;28;20412;-72
2020/12/23 06:11:29;;;;;;;1.60;1.20;;;14.40;85.90;;;;;;5031837;28;20430;-73
2020/12/23 06:14:06;;;;;;;1.90;1.13;;;14.50;85.60;;;;;;5032569;28;20996;-72
2020/12/23 06:16:34;;;;;;;1.50;1.00;;;14.50;85.60;;;;;;5026435;28;20544;-71
2020/12/23 06:19:01;;;;;;;1.73;1.13;;;14.40;85.90;;;;;;5020249;28;20444;-73
2020/12/23 06:21:27;;;;;;;1.93;0.97;;;14.40;86.00;;;;;;5034858;28;20538;-75
2020/12/23 06:24:02;;;;;;;1.37;1.00;;;14.40;86.20;;;;;;5038893;28;20458;-75
2020/12/23 06:26:34;;;;;;;1.63;1.07;;;14.40;86.30;;;;;;5022931;28;20423;-73
2020/12/23 06:29:02;;;;;;;1.30;1.00;;;14.40;86.60;;;;;;5033421;28;20432;-73
2020/12/23 06:31:32;;;;;;;1.30;1.20;;;14.30;86.80;;;;;;5031683;28;20849;-75
2020/12/23 06:33:58;;;;;;;1.67;1.10;;;14.30;86.90;;;;;;5031241;28;20416;-72
2020/12/23 06:36:32;;;;;;;2.30;1.10;;;14.30;86.90;;;;;;5031106;28;20946;-74
2020/12/23 06:39:17;;;;;;;2.90;1.10;;;14.30;87.00;;;;;;5031439;28;20423;-73
2020/12/23 06:41:43;;;;;;;3.07;1.00;;;14.20;87.10;;;;;;5031622;28;20436;-74
2020/12/23 06:44:09;;;;;;;1.90;1.13;;;14.20;87.30;;;;;;5030802;28;20916;-74
2020/12/23 06:46:59;;;;;;;1.83;1.03;;;14.20;87.40;;;;;;5031244;28;20184;-75
2020/12/23 06:49:44;;;;;;;1.13;1.13;;;14.20;87.70;;;;;;5033546;28;21209;-74
2020/12/23 06:52:22;;;;;;;1.30;1.17;;;14.10;87.70;;;;;;5031519;28;20463;-75
2020/12/23 06:54:49;;;;;;;3.50;1.40;;;14.10;87.60;;;;;;5029280;28;20937;-74
2020/12/23 06:57:39;;;;;;;3.60;1.37;;;14.10;87.30;;;;;;5030925;28;20440;-74
2020/12/23 07:00:05;;;;;;;1.67;1.10;;;14.10;87.10;;;;;;5030370;28;20455;-74
2020/12/23 07:02:41;;;;;;;3.03;1.27;;;14.10;87.00;;;;;;5031282;28;20443;-75
2020/12/23 07:05:08;;;;;;;1.57;1.13;;;14.10;86.60;;;;;;5030327;28;20495;-75
2020/12/23 07:07:34;;;;;;;2.10;1.30;;;14.10;86.30;;;;;;5018405;28;20439;-75
2020/12/23 07:10:13;;;;;;;1.13;0.90;;;14.20;86.00;;;;;;5029854;28;20432;-73
2020/12/23 07:12:44;;;;;;;1.27;1.10;;;14.20;85.30;;;;;;5029721;28;20448;-72
2020/12/23 07:15:16;;;;;;;1.13;1.10;;;14.20;85.30;;;;;;5030927;28;20432;-76
2020/12/23 07:17:44;;;;;;;1.80;1.27;;;14.30;85.00;;;;;;5031736;28;20438;-74
2020/12/23 07:20:13;;;;;;;1.60;1.00;;;14.30;84.90;;;;;;5030383;28;20475;-74
2020/12/23 07:22:39;;;;;;;4.90;1.27;;;14.30;84.60;;;;;;5030759;28;21242;-73
2020/12/23 07:25:06;;;;;;;1.30;1.20;;;14.30;84.40;;;;;;5029837;28;20882;-72
2020/12/23 07:27:32;;;;;;;1.17;1.10;;;14.40;84.40;;;;;;5028997;28;20436;-73
2020/12/23 07:30:07;;;;;;;1.70;1.00;;;14.40;83.80;;;;;;5029080;28;20822;-73
2020/12/23 07:32:33;;;;;;;1.40;1.10;;;14.40;83.70;;;;;;5027346;28;20527;-74
2020/12/23 07:35:04;;;;;;;1.50;1.20;;;14.40;83.60;;;;;;5028436;28;20515;-74
2020/12/23 07:37:52;;;;;;;2.40;1.03;;;14.40;83.40;;;;;;5034091;28;20427;-72
2020/12/23 07:40:18;;;;;;;2.27;1.30;;;14.50;83.10;;;;;;5030258;28;20411;-74
2020/12/23 07:42:48;;;;;;;1.33;1.00;;;14.50;82.80;;;;;;5012989;28;21040;-71
2020/12/23 07:45:14;;;;;;;1.77;1.00;;;14.50;82.40;;;;;;5028171;28;20777;-74
2020/12/23 07:47:40;;;;;;;1.77;1.37;;;14.50;82.20;;;;;;5034295;28;20426;-74
2020/12/23 07:50:06;;;;;;;2.57;1.20;;;14.50;82.20;;;;;;5035822;28;20503;-72
2020/12/23 07:52:33;;;;;;;1.93;1.30;;;14.50;82.20;;;;;;5034316;28;20205;-76
2020/12/23 07:55:16;;;;;;;2.70;1.27;;;14.50;81.90;;;;;;5030001;28;20482;-75
2020/12/23 07:57:42;;;;;;;1.53;1.23;;;14.60;81.90;;;;;;5027761;28;20423;-73
2020/12/23 08:00:13;;;;;;;1.70;1.10;;;14.60;82.10;;;;;;5023358;28;20488;-75
2020/12/23 08:02:39;;;;;;;1.20;1.10;;;14.60;81.80;;;;;;5025006;28;20918;-75
2020/12/23 08:05:07;;;;;;;2.80;0.90;;;14.60;81.80;;;;;;5020707;28;20491;-73
2020/12/23 08:07:52;;;;;;;1.20;1.00;;;14.60;81.70;;;;;;5033826;28;20432;-74
2020/12/23 08:10:21;;;;;;;1.73;1.27;;;14.60;81.50;;;;;;5023746;28;20497;-72
2020/12/23 08:13:01;;;;;;;2.80;1.30;;;14.70;81.20;;;;;;5034161;28;20486;-73
2020/12/23 08:15:28;;;;;;;2.30;1.17;;;14.70;81.40;;;;;;5030980;28;20907;-74
2020/12/23 08:18:10;;;;;;;2.13;1.50;;;14.70;81.20;;;;;;5033924;28;20487;-74
2020/12/23 08:20:36;;;;;;;2.93;1.50;;;14.70;81.20;;;;;;5025012;28;20428;-74
2020/12/23 08:23:03;;;;;;;2.23;1.33;;;14.70;81.40;;;;;;5031085;28;20444;-74
2020/12/23 08:25:30;;;;;;;1.50;1.20;;;14.70;80.80;;;;;;5030041;28;20498;-74
2020/12/23 08:27:58;;;;;;;1.83;1.50;;;14.70;81.10;;;;;;5031410;28;20424;-75
2020/12/23 08:30:29;;;;;;;2.03;1.30;;;14.80;81.10;;;;;;5030553;28;20985;-74
2020/12/23 08:32:58;;;;;;;1.43;1.40;;;14.70;80.80;;;;;;5021270;28;20436;-74
2020/12/23 08:35:34;;;;;;;2.00;1.37;;;14.80;80.90;;;;;;5034303;28;20478;-74
2020/12/23 08:37:59;;;;;;;1.77;1.30;;;14.80;80.80;;;;;;5033627;28;20438;-75
2020/12/23 08:40:25;;;;;;;1.47;1.27;;;14.90;80.80;;;;;;5030651;28;20440;-75
2020/12/23 08:42:59;;;;;;;1.93;1.37;;;14.90;80.60;;;;;;5030203;28;20222;-75
2020/12/23 08:45:29;;;;;;;1.80;1.20;;;14.90;80.20;;;;;;5028576;28;20482;-76
2020/12/23 08:47:58;;;;;;;1.27;1.10;;;15.00;80.00;;;;;;5030731;28;20457;-74
2020/12/23 08:50:26;;;;;;;1.57;1.17;;;15.00;79.90;;;;;;5030742;28;20416;-75
2020/12/23 08:52:54;;;;;;;2.23;1.40;;;15.00;79.70;;;;;;5018713;28;20449;-75
2020/12/23 08:55:23;;;;;;;3.03;1.30;;;15.00;79.60;;;;;;5028308;28;20456;-76
2020/12/23 08:57:50;;;;;;;1.10;1.00;;;15.00;79.60;;;;;;5030065;28;20425;-75
2020/12/23 09:00:20;;;;;;;1.73;1.10;;;15.10;79.30;;;;;;5029450;28;20430;-76
2020/12/23 09:02:47;;;;;;;1.60;1.33;;;15.10;78.90;;;;;;5035584;28;20528;-75
2020/12/23 09:05:26;;;;;;;1.93;1.20;;;15.10;79.00;;;;;;5036353;28;20559;-75
2020/12/23 09:08:04;;;;;;;2.37;1.27;;;15.10;79.00;;;;;;5034941;28;20444;-76
2020/12/23 09:10:30;;;;;;;2.20;1.30;;;15.10;79.00;;;;;;5023613;28;20425;-78
2020/12/23 09:13:12;;;;;;;1.40;1.10;;;15.20;78.60;;;;;;5021203;28;20463;-77
2020/12/23 09:15:39;;;;;;;2.60;1.20;;;15.20;78.40;;;;;;5028822;28;20463;-75
2020/12/23 09:18:06;;;;;;;2.20;1.37;;;15.20;78.40;;;;;;5032908;28;20797;-77
2020/12/23 09:20:32;;;;;;;1.10;0.93;;;15.20;78.00;;;;;;5027083;28;20428;-78
2020/12/23 09:22:59;;;;;;;3.97;1.60;;;15.20;78.30;;;;;;5046402;28;20448;-76
2020/12/23 09:25:27;;;;;;;3.07;1.50;;;15.30;78.30;;;;;;5032726;28;20209;-77
2020/12/23 09:28:04;;;;;;;1.73;1.40;;;15.30;78.10;;;;;;5036052;28;20433;-77
2020/12/23 09:30:45;;;;;;;3.40;1.60;;;15.20;78.10;;;;;;5040122;28;20514;-78
2020/12/23 09:33:15;;;;;;;1.80;1.40;;;15.20;78.30;;;;;;5030984;28;20512;-77
2020/12/23 09:35:43;;;;;;;2.50;1.30;;;15.20;78.30;;;;;;5037796;28;20417;-77
2020/12/23 09:38:12;;;;;;;3.87;1.70;;;15.20;78.40;;;;;;5040490;28;20435;-76
2020/12/23 09:40:58;;;;;;;3.80;1.50;;;15.20;79.00;;;;;;5037391;28;20490;-77
2020/12/23 09:43:29;;;;;;;1.93;1.40;;;15.20;79.50;;;;;;5039263;28;20657;-77
2020/12/23 09:45:58;;;;;;;1.40;1.20;;;15.20;79.20;;;;;;5027790;28;20470;-76
2020/12/23 09:48:26;;;;;;;1.73;1.17;;;15.20;79.20;;;;;;5030433;28;20463;-76
2020/12/23 09:50:53;;;;;;;1.20;1.00;;;15.20;79.20;;;;;;5016072;28;21001;-77
2020/12/23 09:53:19;;;;;;;2.40;1.40;;;15.30;79.00;;;;;;5034807;28;20423;-77
2020/12/23 09:55:46;;;;;;;2.00;1.27;;;15.30;78.30;;;;;;5038744;28;20434;-76
2020/12/23 09:58:13;;;;;;;2.50;1.30;;;15.30;78.40;;;;;;5026009;28;20516;-77
2020/12/23 10:00:40;;;;;;;2.13;1.43;;;15.30;78.40;;;;;;5037331;28;20423;-76
2020/12/23 10:03:07;;;;;;;3.20;1.80;;;15.30;78.30;;;;;;5039462;28;20955;-75
2020/12/23 10:05:32;;;;;;;2.00;1.50;;;15.30;78.10;;;;;;5040845;28;20540;-75
2020/12/23 10:07:59;;;;;;;3.20;1.30;;;15.30;78.30;;;;;;5038500;28;20820;-76
2020/12/23 10:10:24;;;;;;;2.53;1.30;;;15.30;78.30;;;;;;5017087;28;20570;-75
2020/12/23 10:12:50;;;;;;;1.30;1.20;;;15.30;78.40;;;;;;5031579;28;20455;-75
2020/12/23 10:15:16;;;;;;;4.17;1.60;;;15.20;78.60;;;;;;5035079;28;20200;-75
2020/12/23 10:17:43;;;;;;;2.60;1.27;;;15.30;78.60;;;;;;5036578;28;20193;-74
2020/12/23 10:20:09;;;;;;;1.93;1.40;;;15.30;78.40;;;;;;5038944;28;20193;-75
2020/12/23 10:22:36;;;;;;;1.90;1.37;;;15.30;78.60;;;;;;5024330;28;20532;-75
2020/12/23 10:25:07;;;;;;;6.03;1.60;;;15.30;78.30;;;;;;5025550;28;20479;-75
2020/12/23 10:27:32;;;;;;;2.50;1.70;;;15.30;78.10;;;;;;5030828;28;20416;-75
2020/12/23 10:29:58;;;;;;;1.73;1.30;;;15.40;77.80;;;;;;5012942;28;20782;-76
2020/12/23 10:32:25;;;;;;;2.27;1.43;;;15.50;77.60;;;;;;5027613;28;20225;-76
2020/12/23 10:34:50;;;;;;;2.93;1.27;;;15.50;77.40;;;;;;5021223;28;20428;-76
2020/12/23 10:37:19;;;;;;;5.43;1.70;;;15.60;77.30;;;;;;5028518;28;20421;-75
2020/12/23 10:39:46;;;;;;;2.30;1.40;;;15.70;77.30;;;;;;5013432;28;20189;-75
2020/12/23 10:42:12;;;;;;;3.10;1.43;;;15.70;76.70;;;;;;5026858;28;20506;-76
2020/12/23 10:44:37;;;;;;;3.43;1.60;;;15.70;76.80;;;;;;5022229;28;20480;-77
2020/12/23 10:47:03;;;;;;;2.33;1.50;;;15.80;76.50;;;;;;5033976;28;20202;-75
2020/12/23 10:49:30;;;;;;;2.17;1.27;;;15.80;76.40;;;;;;5027662;28;20480;-75
2020/12/23 10:51:57;;;;;;;3.97;1.80;;;15.90;76.50;;;;;;5028252;28;20451;-77
2020/12/23 10:54:27;;;;;;;2.30;1.40;;;15.90;76.80;;;;;;5030340;28;20445;-75
2020/12/23 10:56:53;;;;;;;2.90;1.50;;;15.90;76.70;;;;;;5028630;28;20951;-75
2020/12/23 10:59:19;;;;;;;4.93;1.37;;;15.90;76.70;;;;;;5012374;28;20522;-76
2020/12/23 11:01:45;;;;;;;2.70;1.50;;;15.90;76.50;;;;;;5028411;28;20456;-75
2020/12/23 11:04:11;;;;;;;3.13;1.40;;;15.90;77.30;;;;;;5020676;28;20503;-77
2020/12/23 11:06:37;;;;;;;3.73;1.50;;;15.90;77.40;;;;;;5028481;28;20189;-76
2020/12/23 11:09:04;;;;;;;3.00;1.50;;;15.90;78.10;;;;;;5021005;28;20810;-76
2020/12/23 11:11:30;;;;;;;2.30;1.60;;;15.90;78.30;;;;;;5027531;28;20217;-75
2020/12/23 11:13:56;;;;;;;2.97;1.70;;;15.90;78.40;;;;;;5028725;28;20430;-76
2020/12/23 11:16:25;;;;;;;3.10;1.27;;;15.90;78.40;;;;;;5029164;28;20514;-77
2020/12/23 11:18:52;;;;;;;2.20;1.57;;;15.90;78.60;;;;;;5032288;28;20447;-75
2020/12/23 11:21:18;;;;;;;4.77;1.97;;;15.90;78.90;;;;;;5030588;28;21032;-77
2020/12/23 11:23:43;;;;;;;3.43;1.50;;;15.90;79.20;;;;;;5030097;28;20439;-74
2020/12/23 11:26:21;;;;;;;2.97;1.43;;;15.90;79.20;;;;;;5026328;28;20228;-75
2020/12/23 11:28:47;;;;;;;3.57;1.73;;;15.80;79.50;;;;;;5023216;28;20463;-76
2020/12/23 11:31:15;;;;;;;4.17;2.00;;;15.80;79.30;;;;;;5011179;28;20506;-76
2020/12/23 11:33:41;;;;;;;2.90;1.50;;;15.80;79.30;;;;;;5011330;28;20460;-74
2020/12/23 11:36:07;;;;;;;4.63;2.10;;;15.80;79.30;;;;;;5018568;28;20508;-76
2020/12/23 11:38:33;;;;;;;4.03;2.00;;;15.80;78.90;;;;;;5018443;28;20591;-75
2020/12/23 11:40:59;;;;;;;8.87;2.30;;;15.80;78.40;;;;;;5028789;28;20428;-77
2020/12/23 11:43:24;;;;;;;3.10;1.43;;;15.70;79.20;;;;;;5028258;28;20201;-75
2020/12/23 11:45:50;;;;;;;2.57;1.63;;;15.60;80.30;;;;;;5011741;28;20538;-76
2020/12/23 11:48:16;;;;;;;3.20;1.40;;;15.50;80.50;;;;;;5024598;28;20236;-76
2020/12/23 11:50:43;;;;;;;2.40;1.50;;;15.40;81.10;;;;;;5023663;28;20425;-75
2020/12/23 11:53:10;;;;;;;2.10;1.50;;;15.40;81.50;;;;;;5011640;28;20556;-76
2020/12/23 11:55:36;;;;;;;1.63;1.30;;;15.50;81.50;;;;;;5013498;28;20435;-75
2020/12/23 11:58:02;;;;;;;3.00;1.30;;;15.50;80.60;;;;;;5017189;28;20425;-74
2020/12/23 12:00:27;;;;;;;3.53;1.50;;;15.40;80.60;;;;;;5017629;28;20193;-76
2020/12/23 12:02:53;;;;;;;1.50;1.27;;;15.50;80.20;;;;;;5018294;28;20297;-75
2020/12/23 12:05:19;;;;;;;1.63;1.17;;;15.50;79.90;;;;;;5030247;28;20219;-75
2020/12/23 12:07:45;;;;;;;2.47;1.43;;;15.60;79.20;;;;;;5031385;28;20280;-75
2020/12/23 12:10:10;;;;;;;4.20;2.00;;;15.60;78.70;;;;;;5023164;28;20182;-76
2020/12/23 12:12:36;;;;;;;2.70;1.50;;;15.60;79.20;;;;;;5022930;28;20232;-75
2020/12/23 12:15:03;;;;;;;1.77;1.40;;;15.60;78.60;;;;;;5030062;28;20771;-76
2020/12/23 12:17:29;;;;;;;1.83;1.10;;;15.70;78.10;;;;;;5021407;28;20428;-74
2020/12/23 12:19:55;;;;;;;2.13;1.40;;;15.80;77.60;;;;;;5035245;28;20797;-74
2020/12/23 12:22:21;;;;;;;6.43;1.50;;;15.80;77.30;;;;;;5017128;28;20528;-74
2020/12/23 12:24:47;;;;;;;2.63;1.70;;;15.90;77.10;;;;;;5016381;28;20575;-75
2020/12/23 12:27:12;;;;;;;1.80;1.43;;;15.90;76.80;;;;;;5029429;28;20432;-75
2020/12/23 12:29:39;;;;;;;1.47;1.37;;;15.90;76.50;;;;;;5030278;28;20246;-75
2020/12/23 12:32:05;;;;;;;2.20;1.30;;;16.00;76.40;;;;;;5028895;28;20208;-76
2020/12/23 12:34:32;;;;;;;2.37;1.90;;;16.00;75.20;;;;;;5029750;28;20430;-76
2020/12/23 12:36:58;;;;;;;2.70;1.30;;;16.10;74.90;;;;;;5031438;28;20421;-76
2020/12/23 12:39:24;;;;;;;2.30;1.17;;;16.10;75.20;;;;;;5043289;28;20432;-76
2020/12/23 12:41:50;;;;;;;2.60;1.50;;;16.10;74.60;;;;;;5016260;28;20452;-76
2020/12/23 12:44:16;;;;;;;1.43;1.00;;;16.10;74.90;;;;;;5011705;28;20483;-75
2020/12/23 12:46:42;;;;;;;1.97;1.70;;;16.10;74.80;;;;;;5028450;28;20226;-75
2020/12/23 12:49:08;;;;;;;2.13;1.50;;;16.10;74.80;;;;;;5033775;28;20431;-75
2020/12/23 12:51:34;;;;;;;2.20;1.63;;;16.10;74.80;;;;;;5021189;28;20461;-76